createdAt,value
2022-08-26T00:01:44.134Z,20.31
2022-08-26T00:04:11.876Z,20.26
2022-08-26T00:06:42.692Z,20.35
2022-08-26T00:09:16.727Z,20.31
2022-08-26T00:11:47.183Z,20.28
2022-08-26T00:14:14.692Z,20.35
2022-08-26T00:16:48.226Z,20.29
2022-08-26T00:19:16.076Z,20.32
2022-08-26T00:21:42.522Z,20.25
2022-08-26T00:24:12.363Z,20.28
2022-08-26T00:26:40.032Z,20.27
2022-08-26T00:29:08.236Z,20.24
2022-08-26T00:31:38.925Z,20.19
2022-08-26T00:34:06.747Z,20.27
2022-08-26T00:36:36.420Z,20.22
2022-08-26T00:39:07.679Z,20.16
2022-08-26T00:41:35.941Z,20.22
2022-08-26T00:44:02.621Z,20.22
2022-08-26T00:46:34.070Z,20.28
2022-08-26T00:49:12.713Z,20.22
2022-08-26T00:52:02.634Z,20.20
2022-08-26T00:54:34.001Z,20.21
2022-08-26T00:57:08.718Z,20.17
2022-08-26T00:59:45.589Z,20.17
2022-08-26T01:02:19.995Z,20.15
2022-08-26T01:04:49.487Z,20.14
2022-08-26T01:07:24.448Z,20.14
2022-08-26T01:09:50.997Z,20.13
2022-08-26T01:12:21.972Z,20.11
2022-08-26T01:14:49.428Z,20.11
2022-08-26T01:17:16.092Z,20.10
2022-08-26T01:19:48.658Z,20.12
2022-08-26T01:22:50.362Z,20.08
2022-08-26T01:25:19.886Z,20.05
2022-08-26T01:27:49.053Z,20.09
2022-08-26T01:30:16.517Z,20.07
2022-08-26T01:32:44.676Z,20.07
2022-08-26T01:35:11.497Z,20.05
2022-08-26T01:37:41.633Z,19.99
2022-08-26T01:40:16.942Z,20.00
2022-08-26T01:42:44.688Z,19.97
2022-08-26T01:45:21.473Z,19.99
2022-08-26T01:47:49.983Z,20.01
2022-08-26T01:50:30.299Z,20.06
2022-08-26T01:53:01.791Z,20.06
2022-08-26T01:55:34.123Z,20.02
2022-08-26T01:58:06.330Z,19.99
2022-08-26T02:00:35.194Z,20.00
2022-08-26T02:03:21.521Z,20.00
2022-08-26T02:05:53.468Z,20.01
2022-08-26T02:08:28.179Z,20.03
2022-08-26T02:10:55.529Z,20.05
2022-08-26T02:13:26.618Z,20.04
2022-08-26T02:15:54.254Z,20.11
2022-08-26T02:18:21.078Z,20.15
2022-08-26T02:20:51.692Z,20.16
2022-08-26T02:23:18.732Z,20.15
2022-08-26T02:26:16.513Z,20.13
2022-08-26T02:28:54.123Z,20.13
2022-08-26T02:31:21.035Z,20.11
2022-08-26T02:33:49.270Z,20.15
2022-08-26T02:36:21.139Z,20.15
2022-08-26T02:38:47.744Z,20.12
2022-08-26T02:41:14.521Z,20.11
2022-08-26T02:43:41.040Z,20.03
2022-08-26T02:46:07.671Z,19.99
2022-08-26T02:48:35.423Z,20.08
2022-08-26T02:51:03.489Z,20.00
2022-08-26T02:53:35.568Z,20.05
2022-08-26T02:56:02.740Z,20.00
2022-08-26T02:58:29.691Z,19.98
2022-08-26T03:00:59.083Z,20.03
2022-08-26T03:03:26.184Z,20.03
2022-08-26T03:05:53.676Z,20.04
2022-08-26T03:08:24.094Z,19.97
2022-08-26T03:10:51.913Z,19.92
2022-08-26T03:13:19.161Z,19.83
2022-08-26T03:15:45.987Z,19.80
2022-08-26T03:18:14.394Z,19.86
2022-08-26T03:20:41.079Z,19.90
2022-08-26T03:23:10.331Z,19.76
2022-08-26T03:25:37.017Z,19.90
2022-08-26T03:28:03.565Z,19.84
2022-08-26T03:30:44.225Z,19.91
2022-08-26T03:33:14.074Z,19.84
2022-08-26T03:35:47.844Z,19.75
2022-08-26T03:38:17.316Z,19.68
2022-08-26T03:40:44.329Z,19.80
2022-08-26T03:43:11.854Z,19.77
2022-08-26T03:45:41.174Z,19.77
2022-08-26T03:48:11.309Z,19.78
2022-08-26T03:50:38.863Z,19.73
2022-08-26T03:53:07.485Z,19.75
2022-08-26T03:55:41.509Z,19.71
2022-08-26T03:58:08.490Z,19.76
2022-08-26T04:00:35.005Z,19.78
2022-08-26T04:03:02.737Z,19.73
2022-08-26T04:05:29.758Z,19.73
2022-08-26T04:07:58.683Z,19.78
2022-08-26T04:10:29.216Z,19.74
2022-08-26T04:12:59.202Z,19.75
2022-08-26T04:15:27.262Z,19.73
2022-08-26T04:17:54.432Z,19.73
2022-08-26T04:20:22.641Z,19.77
2022-08-26T04:22:49.141Z,19.76
2022-08-26T04:25:15.725Z,19.78
2022-08-26T04:27:42.834Z,19.82
2022-08-26T04:30:13.225Z,19.77
2022-08-26T04:32:39.793Z,19.76
2022-08-26T04:35:11.342Z,19.79
2022-08-26T04:37:43.115Z,19.79
2022-08-26T04:40:10.990Z,19.70
2022-08-26T04:42:37.708Z,19.68
2022-08-26T04:45:05.918Z,19.59
2022-08-26T04:47:37.206Z,19.62
2022-08-26T04:50:06.018Z,19.55
2022-08-26T04:52:34.270Z,19.63
2022-08-26T04:55:00.914Z,19.54
2022-08-26T04:57:30.538Z,19.55
2022-08-26T04:59:58.122Z,19.54
2022-08-26T05:02:24.906Z,19.55
2022-08-26T05:04:52.374Z,19.54
2022-08-26T05:07:21.837Z,19.57
2022-08-26T05:09:50.806Z,19.48
2022-08-26T05:12:17.548Z,19.49
2022-08-26T05:14:46.347Z,19.42
2022-08-26T05:17:15.067Z,19.45
2022-08-26T05:19:42.808Z,19.52
2022-08-26T05:22:13.270Z,19.48
2022-08-26T05:24:41.269Z,19.45
2022-08-26T05:27:11.770Z,19.53
2022-08-26T05:29:38.979Z,19.50
2022-08-26T05:32:08.217Z,19.48
2022-08-26T05:34:37.870Z,19.43
2022-08-26T05:37:05.989Z,19.48
2022-08-26T05:39:33.697Z,19.45
2022-08-26T05:42:00.837Z,19.47
2022-08-26T05:44:28.978Z,19.49
2022-08-26T05:47:02.624Z,19.46
2022-08-26T05:49:36.869Z,19.43
2022-08-26T05:52:11.767Z,19.50
2022-08-26T05:54:41.583Z,19.49
2022-08-26T05:57:08.267Z,19.58
2022-08-26T05:59:34.868Z,19.60
2022-08-26T06:02:04.213Z,19.62
2022-08-26T06:04:37.460Z,19.63
2022-08-26T06:07:07.323Z,19.64
2022-08-26T06:09:38.671Z,19.60
2022-08-26T06:12:05.867Z,19.54
2022-08-26T06:14:32.597Z,19.54
2022-08-26T06:17:00.772Z,19.52
2022-08-26T06:19:33.047Z,19.52
2022-08-26T06:22:22.510Z,19.67
2022-08-26T06:25:11.439Z,19.57
2022-08-26T06:27:38.142Z,19.69
2022-08-26T06:30:06.003Z,19.67
2022-08-26T06:32:32.849Z,19.72
2022-08-26T06:34:59.822Z,19.67
2022-08-26T06:37:28.405Z,19.74
2022-08-26T06:39:55.842Z,19.82
2022-08-26T06:42:24.159Z,19.84
2022-08-26T06:44:53.702Z,19.72
2022-08-26T06:47:20.457Z,19.97
2022-08-26T06:49:47.294Z,19.98
2022-08-26T06:52:14.496Z,20.03
2022-08-26T06:54:46.445Z,20.06
2022-08-26T06:57:13.141Z,20.13
2022-08-26T06:59:43.201Z,20.14
2022-08-26T07:02:09.861Z,20.15
2022-08-26T07:04:41.028Z,20.22
2022-08-26T07:07:07.990Z,20.19
2022-08-26T07:09:37.449Z,20.18
2022-08-26T07:12:04.484Z,20.11
2022-08-26T07:14:31.675Z,20.09
2022-08-26T07:17:01.339Z,20.04
2022-08-26T07:19:30.938Z,20.10
2022-08-26T07:22:03.913Z,20.05
2022-08-26T07:24:32.271Z,20.14
2022-08-26T07:27:05.792Z,20.18
2022-08-26T07:29:33.161Z,20.21
2022-08-26T07:31:59.825Z,20.24
2022-08-26T07:34:27.196Z,20.16
2022-08-26T07:36:53.633Z,20.17
2022-08-26T07:39:23.503Z,20.16
2022-08-26T07:41:50.562Z,20.11
2022-08-26T07:44:29.135Z,20.04
2022-08-26T07:46:56.404Z,20.04
2022-08-26T07:49:25.022Z,20.11
2022-08-26T07:51:54.446Z,20.03
2022-08-26T07:54:26.753Z,20.06
2022-08-26T07:56:54.858Z,20.09
2022-08-26T07:59:23.263Z,20.10
2022-08-26T08:01:52.175Z,19.97
2022-08-26T08:04:26.133Z,20.08
2022-08-26T08:06:53.973Z,20.09
2022-08-26T08:09:20.471Z,20.11
2022-08-26T08:11:49.671Z,20.05
2022-08-26T08:14:22.040Z,20.04
2022-08-26T08:16:51.022Z,20.14
2022-08-26T08:19:20.960Z,20.18
2022-08-26T08:21:48.362Z,20.16
2022-08-26T08:24:15.972Z,20.18
2022-08-26T08:26:42.490Z,20.26
2022-08-26T08:29:11.029Z,20.30
2022-08-26T08:31:56.964Z,20.30
2022-08-26T08:34:26.219Z,20.30
2022-08-26T08:36:53.699Z,20.36
2022-08-26T08:39:21.963Z,20.23
2022-08-26T08:42:33.515Z,20.29
2022-08-26T08:45:07.700Z,20.30
2022-08-26T08:47:43.494Z,20.33
2022-08-26T08:50:25.964Z,20.26
2022-08-26T08:53:13.079Z,20.20
2022-08-26T08:56:00.419Z,20.24
2022-08-26T08:58:57.286Z,20.30
2022-08-26T09:01:52.264Z,20.33
2022-08-26T09:04:38.401Z,20.34
2022-08-26T09:07:08.737Z,20.36
2022-08-26T09:09:46.028Z,20.38
2022-08-26T09:12:29.390Z,20.47
2022-08-26T09:15:02.679Z,20.53
2022-08-26T09:17:53.187Z,20.61
2022-08-26T09:20:34.914Z,20.74
2022-08-26T09:23:03.525Z,20.76
2022-08-26T09:25:30.170Z,20.78
2022-08-26T09:27:57.651Z,20.88
2022-08-26T09:30:33.107Z,20.92
2022-08-26T09:33:10.840Z,21.01
2022-08-26T09:35:41.323Z,21.23
2022-08-26T09:38:33.999Z,21.25
2022-08-26T09:41:05.080Z,21.37
2022-08-26T09:43:32.020Z,21.23
2022-08-26T09:46:24.460Z,21.20
2022-08-26T09:48:53.020Z,21.20
2022-08-26T09:51:26.448Z,21.03
2022-08-26T09:53:58.329Z,21.05
2022-08-26T09:56:27.620Z,21.05
2022-08-26T09:58:55.317Z,21.09
2022-08-26T10:01:35.279Z,20.94
2022-08-26T10:04:06.710Z,20.85
2022-08-26T10:06:38.195Z,20.94
2022-08-26T10:09:09.890Z,21.04
2022-08-26T10:11:45.645Z,20.99
2022-08-26T10:14:27.780Z,21.00
2022-08-26T10:17:02.152Z,20.88
2022-08-26T10:19:55.578Z,20.93
2022-08-26T10:22:58.892Z,20.95
2022-08-26T10:25:32.546Z,20.84
2022-08-26T10:28:28.420Z,20.79
2022-08-26T10:31:01.837Z,20.88
2022-08-26T10:33:28.517Z,20.82
2022-08-26T10:36:01.157Z,20.72
2022-08-26T10:38:34.717Z,20.71
2022-08-26T10:41:11.025Z,20.72
2022-08-26T10:43:52.051Z,20.70
2022-08-26T10:46:27.223Z,20.62
2022-08-26T10:49:06.454Z,20.66
2022-08-26T10:51:42.060Z,20.57
2022-08-26T10:54:15.911Z,20.55
2022-08-26T10:56:51.504Z,20.57
2022-08-26T10:59:21.922Z,20.61
2022-08-26T11:02:07.023Z,20.62
2022-08-26T11:04:55.926Z,20.62
2022-08-26T11:07:42.475Z,20.61
2022-08-26T11:10:12.304Z,20.68
2022-08-26T11:12:42.074Z,20.73
2022-08-26T11:15:11.498Z,20.76
2022-08-26T11:17:46.069Z,20.83
2022-08-26T11:20:27.885Z,20.97
2022-08-26T11:22:56.703Z,21.00
2022-08-26T11:25:29.957Z,21.06
2022-08-26T11:28:00.819Z,21.08
2022-08-26T11:30:40.773Z,21.06
2022-08-26T11:33:08.410Z,21.00
2022-08-26T11:35:37.567Z,21.04
2022-08-26T11:38:28.817Z,21.01
2022-08-26T11:41:20.751Z,20.91
2022-08-26T11:43:51.906Z,20.84
2022-08-26T11:46:27.344Z,20.88
2022-08-26T11:49:05.196Z,20.78
2022-08-26T11:51:35.973Z,20.89
2022-08-26T11:54:30.505Z,20.91
2022-08-26T11:57:07.925Z,20.99
2022-08-26T11:59:45.908Z,21.13
2022-08-26T12:02:16.804Z,21.19
2022-08-26T12:04:48.825Z,21.31
2022-08-26T12:07:17.154Z,21.40
2022-08-26T12:09:54.756Z,21.43
2022-08-26T12:12:34.543Z,21.40
2022-08-26T12:15:11.543Z,21.40
2022-08-26T12:17:39.885Z,21.40
2022-08-26T12:20:48.844Z,21.24
2022-08-26T12:23:22.625Z,21.27
2022-08-26T12:25:52.804Z,21.31
2022-08-26T12:28:21.615Z,21.29
2022-08-26T12:31:05.108Z,21.33
2022-08-26T12:33:35.935Z,21.29
2022-08-26T12:36:05.146Z,21.39
2022-08-26T12:38:36.801Z,21.40
2022-08-26T12:41:03.571Z,21.38
2022-08-26T12:43:45.053Z,21.46
2022-08-26T12:46:16.468Z,21.41
2022-08-26T12:48:47.546Z,21.33
2022-08-26T12:51:25.376Z,21.15
2022-08-26T12:53:55.129Z,21.15
2022-08-26T12:56:27.323Z,21.11
2022-08-26T12:59:06.107Z,21.01
2022-08-26T13:01:42.914Z,21.11
2022-08-26T13:04:36.575Z,21.15
2022-08-26T13:07:32.698Z,21.10
2022-08-26T13:09:59.683Z,21.06
2022-08-26T13:12:37.381Z,21.07
2022-08-26T13:15:05.680Z,21.10
2022-08-26T13:17:32.305Z,21.10
2022-08-26T13:20:03.581Z,21.13
2022-08-26T13:22:30.621Z,21.11
2022-08-26T13:24:57.212Z,21.05
2022-08-26T13:27:26.337Z,21.10
2022-08-26T13:29:53.795Z,20.94
2022-08-26T13:32:22.374Z,21.01
2022-08-26T13:34:53.803Z,21.00
2022-08-26T13:37:22.266Z,20.94
2022-08-26T13:40:00.592Z,20.98
2022-08-26T13:42:27.395Z,20.97
2022-08-26T13:44:57.873Z,20.98
2022-08-26T13:47:25.770Z,20.95
2022-08-26T13:49:54.058Z,21.02
2022-08-26T13:52:30.678Z,20.96
2022-08-26T13:55:01.064Z,20.99
2022-08-26T13:57:29.780Z,20.91
2022-08-26T13:59:58.889Z,20.87
2022-08-26T14:02:26.334Z,20.80
2022-08-26T14:04:54.698Z,20.80
2022-08-26T14:07:21.323Z,20.83
2022-08-26T14:09:47.754Z,20.88
2022-08-26T14:12:14.216Z,20.87
2022-08-26T14:14:43.697Z,20.77
2022-08-26T14:17:12.952Z,20.76
2022-08-26T14:19:43.717Z,20.80
2022-08-26T14:22:14.257Z,20.74
2022-08-26T14:24:44.868Z,20.67
2022-08-26T14:27:12.654Z,20.63
2022-08-26T14:29:41.893Z,20.67
2022-08-26T14:32:13.726Z,20.65
2022-08-26T14:34:41.584Z,20.63
2022-08-26T14:37:09.219Z,20.59
2022-08-26T14:39:38.073Z,20.56
2022-08-26T14:42:04.880Z,20.62
2022-08-26T14:44:33.153Z,20.58
2022-08-26T14:47:01.028Z,20.60
2022-08-26T14:49:27.671Z,20.59
2022-08-26T14:51:54.854Z,20.65
2022-08-26T14:54:21.386Z,20.71
2022-08-26T14:56:53.981Z,20.76
2022-08-26T14:59:25.570Z,20.74
2022-08-26T15:01:52.517Z,20.76
2022-08-26T15:04:19.764Z,20.78
2022-08-26T15:06:46.675Z,20.74
2022-08-26T15:09:13.618Z,20.68
2022-08-26T15:11:42.990Z,20.67
2022-08-26T15:14:14.688Z,20.74
2022-08-26T15:16:47.974Z,20.64
2022-08-26T15:19:15.344Z,20.68
2022-08-26T15:21:42.629Z,20.77
2022-08-26T15:24:09.055Z,20.78
2022-08-26T15:26:38.548Z,20.78
2022-08-26T15:29:05.508Z,20.73
2022-08-26T15:31:33.267Z,20.67
2022-08-26T15:34:03.043Z,20.67
2022-08-26T15:36:31.967Z,20.73
2022-08-26T15:39:00.390Z,20.74
2022-08-26T15:41:28.038Z,20.78
2022-08-26T15:43:54.749Z,20.77
2022-08-26T15:46:21.272Z,20.91
2022-08-26T15:48:47.727Z,20.92
2022-08-26T15:51:26.827Z,20.89
2022-08-26T15:53:56.228Z,20.89
2022-08-26T15:56:27.491Z,20.92
2022-08-26T15:58:56.077Z,20.96
2022-08-26T16:01:27.392Z,20.93
2022-08-26T16:03:55.294Z,20.79
2022-08-26T16:06:25.173Z,20.77
2022-08-26T16:08:51.759Z,20.78
2022-08-26T16:11:21.320Z,20.85
2022-08-26T16:13:48.432Z,20.82
2022-08-26T16:16:15.570Z,20.83
2022-08-26T16:18:42.924Z,20.89
2022-08-26T16:21:13.264Z,20.85
2022-08-26T16:23:45.392Z,20.96
2022-08-26T16:26:22.416Z,21.06
2022-08-26T16:28:49.118Z,21.15
2022-08-26T16:31:16.487Z,21.23
2022-08-26T16:33:43.514Z,21.31
2022-08-26T16:36:13.091Z,21.42
2022-08-26T16:38:41.226Z,21.49
2022-08-26T16:41:08.789Z,21.55
2022-08-26T16:43:35.995Z,21.50
2022-08-26T16:46:06.086Z,21.27
2022-08-26T16:48:32.668Z,21.14
2022-08-26T16:50:59.309Z,21.07
2022-08-26T16:53:25.756Z,20.94
2022-08-26T16:55:52.170Z,20.82
2022-08-26T16:58:21.928Z,20.74
2022-08-26T17:00:49.363Z,20.70
2022-08-26T17:03:15.966Z,20.75
2022-08-26T17:05:42.437Z,20.70
2022-08-26T17:08:11.993Z,20.68
2022-08-26T17:10:38.676Z,20.62
2022-08-26T17:13:05.879Z,20.61
2022-08-26T17:15:32.547Z,20.64
2022-08-26T17:17:59.057Z,20.56
2022-08-26T17:20:25.707Z,20.51
2022-08-26T17:22:54.796Z,20.37
2022-08-26T17:25:23.996Z,20.44
2022-08-26T17:27:50.905Z,20.45
2022-08-26T17:30:17.841Z,20.41
2022-08-26T17:32:44.948Z,20.47
2022-08-26T17:35:12.928Z,20.42
2022-08-26T17:37:41.332Z,20.37
2022-08-26T17:40:13.133Z,20.31
2022-08-26T17:42:40.210Z,20.22
2022-08-26T17:45:08.393Z,20.24
2022-08-26T17:47:35.246Z,20.14
2022-08-26T17:50:02.004Z,20.06
2022-08-26T17:52:28.967Z,20.10
2022-08-26T17:54:58.983Z,20.14
2022-08-26T17:57:29.439Z,19.99
2022-08-26T17:59:56.768Z,19.90
2022-08-26T18:02:24.033Z,19.85
2022-08-26T18:04:50.737Z,19.79
2022-08-26T18:07:17.706Z,19.74
2022-08-26T18:09:44.671Z,19.72
2022-08-26T18:12:12.674Z,19.75
2022-08-26T18:14:41.679Z,19.89
2022-08-26T18:17:08.250Z,19.84
2022-08-26T18:19:34.909Z,19.80
2022-08-26T18:22:04.250Z,19.80
2022-08-26T18:24:32.194Z,19.67
2022-08-26T18:26:59.302Z,19.63
2022-08-26T18:29:36.389Z,19.64
2022-08-26T18:32:12.105Z,19.50
2022-08-26T18:34:41.235Z,19.53
2022-08-26T18:37:15.700Z,19.46
2022-08-26T18:39:42.574Z,19.36
2022-08-26T18:42:11.022Z,19.30
2022-08-26T18:44:40.102Z,19.35
2022-08-26T18:47:09.815Z,19.25
2022-08-26T18:49:46.588Z,19.10
2022-08-26T18:52:13.496Z,19.13
2022-08-26T18:54:43.054Z,19.10
2022-08-26T18:57:13.908Z,19.08
2022-08-26T18:59:43.897Z,18.91
2022-08-26T19:02:13.112Z,18.97
2022-08-26T19:04:42.822Z,18.68
2022-08-26T19:07:10.096Z,18.87
2022-08-26T19:09:37.116Z,18.87
2022-08-26T19:12:08.055Z,18.85
2022-08-26T19:14:37.438Z,18.84
2022-08-26T19:17:05.578Z,18.93
2022-08-26T19:19:32.715Z,18.57
2022-08-26T19:21:59.976Z,18.63
2022-08-26T19:24:29.668Z,18.54
2022-08-26T19:26:59.439Z,18.67
2022-08-26T19:29:29.377Z,18.72
2022-08-26T19:31:56.712Z,18.70
2022-08-26T19:34:24.435Z,18.73
2022-08-26T19:36:53.081Z,18.68
2022-08-26T19:39:20.536Z,18.69
2022-08-26T19:41:47.264Z,18.64
2022-08-26T19:44:40.114Z,18.65
2022-08-26T19:47:08.602Z,18.67
2022-08-26T19:49:35.544Z,18.64
2022-08-26T19:52:03.020Z,18.56
2022-08-26T19:54:29.935Z,18.56
2022-08-26T19:56:56.963Z,18.60
2022-08-26T19:59:23.570Z,18.56
2022-08-26T20:01:55.176Z,18.51
2022-08-26T20:04:29.525Z,18.54
2022-08-26T20:06:57.636Z,18.58
2022-08-26T20:09:24.629Z,18.60
2022-08-26T20:11:51.336Z,18.51
2022-08-26T20:14:23.167Z,18.49
2022-08-26T20:16:49.770Z,18.48
2022-08-26T20:19:37.518Z,18.53
2022-08-26T20:22:04.797Z,18.47
2022-08-26T20:24:32.530Z,18.44
2022-08-26T20:26:59.305Z,18.47
2022-08-26T20:29:26.037Z,18.43
2022-08-26T20:31:54.967Z,18.42
2022-08-26T20:34:24.809Z,18.32
2022-08-26T20:36:52.306Z,18.40
2022-08-26T20:39:21.033Z,18.38
2022-08-26T20:41:57.631Z,18.35
2022-08-26T20:44:24.905Z,18.35
2022-08-26T20:46:51.518Z,18.27
2022-08-26T20:49:18.592Z,18.41
2022-08-26T20:51:53.297Z,18.40
2022-08-26T20:54:26.224Z,18.33
2022-08-26T20:56:56.675Z,18.36
2022-08-26T20:59:23.350Z,18.29
2022-08-26T21:01:49.976Z,18.30
2022-08-26T21:04:19.616Z,18.35
2022-08-26T21:06:52.245Z,18.27
2022-08-26T21:09:21.349Z,18.31
2022-08-26T21:11:48.507Z,18.21
2022-08-26T21:14:16.960Z,18.20
2022-08-26T21:16:45.482Z,18.19
2022-08-26T21:19:15.179Z,18.22
2022-08-26T21:21:42.330Z,18.19
2022-08-26T21:24:11.821Z,18.18
2022-08-26T21:26:38.509Z,18.16
2022-08-26T21:29:07.776Z,18.15
2022-08-26T21:31:34.993Z,18.18
2022-08-26T21:34:01.516Z,18.14
2022-08-26T21:36:28.338Z,18.20
2022-08-26T21:38:59.578Z,18.18
2022-08-26T21:41:26.840Z,18.16
2022-08-26T21:43:58.866Z,18.21
2022-08-26T21:46:28.435Z,18.21
2022-08-26T21:49:01.116Z,18.24
2022-08-26T21:51:33.226Z,18.16
2022-08-26T21:54:05.642Z,18.23
2022-08-26T21:56:41.826Z,18.21
2022-08-26T21:59:08.509Z,18.19
2022-08-26T22:01:36.266Z,18.20
2022-08-26T22:04:09.976Z,18.23
2022-08-26T22:07:03.770Z,18.29
2022-08-26T22:09:33.397Z,18.26
2022-08-26T22:12:00.582Z,18.29
2022-08-26T22:14:47.465Z,18.37
2022-08-26T22:17:19.967Z,18.33
2022-08-26T22:19:52.307Z,18.35
2022-08-26T22:22:20.087Z,18.42
2022-08-26T22:24:53.776Z,18.39
2022-08-26T22:27:20.854Z,18.39
2022-08-26T22:30:01.579Z,18.37
2022-08-26T22:32:41.893Z,18.42
2022-08-26T22:35:28.310Z,18.41
2022-08-26T22:37:59.810Z,18.49
2022-08-26T22:40:35.774Z,18.50
2022-08-26T22:43:09.095Z,18.52
2022-08-26T22:45:43.628Z,18.48
2022-08-26T22:48:15.882Z,18.44
2022-08-26T22:50:48.331Z,18.52
2022-08-26T22:53:16.710Z,18.48
2022-08-26T22:55:43.761Z,18.50
2022-08-26T22:58:13.811Z,18.45
2022-08-26T23:00:46.715Z,18.45
2022-08-26T23:03:16.720Z,18.46
2022-08-26T23:05:53.529Z,18.37
2022-08-26T23:08:20.333Z,18.33
2022-08-26T23:10:47.903Z,18.30
2022-08-26T23:13:21.233Z,18.31
2022-08-26T23:15:48.772Z,18.21
2022-08-26T23:18:16.624Z,18.24
2022-08-26T23:20:43.131Z,18.22
2022-08-26T23:23:12.551Z,18.19
2022-08-26T23:25:39.139Z,18.25
2022-08-26T23:28:10.433Z,18.28
2022-08-26T23:30:37.358Z,18.31
2022-08-26T23:33:08.780Z,18.32
2022-08-26T23:35:35.348Z,18.32
2022-08-26T23:38:02.540Z,18.34
2022-08-26T23:40:32.857Z,18.44
2022-08-26T23:43:05.194Z,18.34
2022-08-26T23:45:34.721Z,18.34
2022-08-26T23:48:06.566Z,18.32
2022-08-26T23:50:52.556Z,18.40
2022-08-26T23:53:22.118Z,18.42
2022-08-26T23:55:52.153Z,18.36
2022-08-26T23:58:20.976Z,18.33
